Time;durP1;ratioP1;P1;durP2;ratioP2;P2;SDS_P1;SDS_P2;PMS_P1;PMS_P2;Temp;Humidity;BMP_temperature;BMP_pressure;BME280_temperature;BME280_humidity;BME280_pressure;Samples;Min_cycle;Max_cycle;Signal;HPM_P1;HPM_P2
2023/08/23 00:01:51;;;;;;;16.55;11.18;;;;;;;25.86;55.59;99471.06;5013143;28;20029;-86
2023/08/23 00:04:19;;;;;;;14.15;11.18;;;;;;;25.86;55.35;99467.38;5015745;28;20033;-86
2023/08/23 00:06:44;;;;;;;12.57;10.90;;;;;;;25.92;54.66;99472.16;5000549;28;20091;-86
2023/08/23 00:09:10;;;;;;;11.73;10.30;;;;;;;25.68;55.78;99473.47;5014132;28;20451;-85
2023/08/23 00:11:35;;;;;;;11.65;10.50;;;;;;;25.98;54.64;99465.91;4996321;28;20037;-86
2023/08/23 00:14:01;;;;;;;11.93;10.73;;;;;;;26.28;53.40;99472.66;5004807;28;20030;-85
2023/08/23 00:16:26;;;;;;;12.93;11.52;;;;;;;26.53;52.89;99468.41;4996255;28;20053;-86
2023/08/23 00:18:52;;;;;;;11.70;10.05;;;;;;;26.52;52.34;99461.06;5017619;28;20036;-85
2023/08/23 00:21:17;;;;;;;12.27;10.27;;;;;;;26.63;52.13;99479.66;5026500;28;20471;-85
2023/08/23 00:23:43;;;;;;;17.05;11.85;;;;;;;26.47;53.03;99476.75;5025023;28;20029;-86
2023/08/23 00:26:10;;;;;;;14.93;10.45;;;;;;;26.37;53.09;99472.88;5013683;28;20022;-86
2023/08/23 00:28:37;;;;;;;15.50;11.10;;;;;;;26.41;52.94;99470.72;5004203;28;20084;-86
2023/08/23 00:31:03;;;;;;;18.90;10.23;;;;;;;26.57;52.25;99464.22;5033440;28;20025;-86
2023/08/23 00:33:28;;;;;;;11.07;9.90;;;;;;;26.58;51.91;99471.56;5013311;28;20535;-86
2023/08/23 00:35:54;;;;;;;11.52;10.40;;;;;;;26.33;52.99;99475.03;5032123;28;20091;-86
2023/08/23 00:38:19;;;;;;;12.85;10.85;;;;;;;26.40;52.31;99469.13;5012317;28;20029;-85
2023/08/23 00:40:45;;;;;;;14.00;11.18;;;;;;;26.41;52.78;99481.41;5028595;28;20060;-86
2023/08/23 00:43:11;;;;;;;14.10;11.15;;;;;;;26.48;52.65;99479.16;5030077;28;20049;-86
2023/08/23 00:45:37;;;;;;;14.57;10.45;;;;;;;26.53;52.27;99480.72;5032075;28;20067;-86
2023/08/23 00:48:04;;;;;;;13.45;10.63;;;;;;;26.52;52.29;99484.00;5035003;28;20025;-85
2023/08/23 00:50:31;;;;;;;13.05;11.65;;;;;;;26.06;54.16;99481.69;5018141;28;20025;-85
2023/08/23 00:52:57;;;;;;;14.63;11.00;;;;;;;25.42;55.95;99478.84;5015109;28;20412;-85
2023/08/23 00:55:23;;;;;;;15.60;11.43;;;;;;;25.60;55.44;99464.22;5015071;28;20033;-85
2023/08/23 00:57:50;;;;;;;17.52;12.45;;;;;;;25.52;56.29;99477.88;5018463;28;20484;-85
2023/08/23 01:00:16;;;;;;;13.60;10.88;;;;;;;25.75;55.81;99491.31;5038781;28;20025;-86
2023/08/23 01:02:42;;;;;;;16.80;12.35;;;;;;;25.37;56.15;99466.66;5032915;28;20048;-85
2023/08/23 01:05:08;;;;;;;14.80;12.55;;;;;;;25.60;56.21;99487.94;5014569;28;20049;-86
2023/08/23 01:08:03;;;;;;;13.30;11.75;;;;;;;25.50;56.70;99484.03;5014983;28;20480;-86
2023/08/23 01:10:42;;;;;;;17.00;12.70;;;;;;;25.60;56.12;99487.94;5021015;28;20049;-85
2023/08/23 01:13:12;;;;;;;14.52;11.90;;;;;;;25.60;55.78;99490.00;5029555;28;20029;-85
2023/08/23 01:15:38;;;;;;;;;;;;;;;25.75;55.55;99484.78;5028949;28;20030;-86
2023/08/23 01:18:04;;;;;;;21.48;12.43;;;;;;;25.74;55.47;99481.09;5032377;28;19932;-86
2023/08/23 01:20:31;;;;;;;14.70;11.93;;;;;;;25.88;54.99;99477.16;5014635;28;20029;-85
2023/08/23 01:23:05;;;;;;;17.60;12.82;;;;;;;26.00;54.46;99483.47;5014679;28;20393;-86
2023/08/23 01:25:31;;;;;;;14.07;12.32;;;;;;;25.94;54.67;99483.19;5014100;28;20036;-86
2023/08/23 01:27:57;;;;;;;11.70;10.60;;;;;;;26.06;54.66;99488.25;5014559;28;20432;-86
2023/08/23 01:30:24;;;;;;;19.40;11.20;;;;;;;26.12;54.48;99482.81;5014784;28;20033;-86
2023/08/23 01:33:02;;;;;;;15.35;11.93;;;;;;;25.93;55.24;99490.94;5008067;28;20467;-85
2023/08/23 01:35:57;;;;;;;24.85;12.25;;;;;;;26.04;54.35;99485.03;5032364;28;20029;-86
2023/08/23 01:38:25;;;;;;;15.35;12.15;;;;;;;26.12;54.22;99491.41;5008793;28;20034;-86
2023/08/23 01:40:53;;;;;;;17.15;11.75;;;;;;;26.15;54.32;99484.78;5032876;28;20100;-85
2023/08/23 01:43:18;;;;;;;14.43;10.73;;;;;;;26.08;54.44;99482.09;5051737;28;20053;-86
2023/08/23 01:45:44;;;;;;;14.48;12.13;;;;;;;26.15;53.96;99483.97;5034314;28;20426;-86
2023/08/23 01:48:09;;;;;;;13.85;11.85;;;;;;;25.75;54.97;99477.00;5034218;28;20027;-86
2023/08/23 01:50:35;;;;;;;19.73;12.18;;;;;;;25.23;56.34;99481.22;5032879;28;20491;-87
2023/08/23 01:53:00;;;;;;;12.57;11.20;;;;;;;24.68;57.94;99484.97;5032754;28;20038;-86
2023/08/23 01:55:26;;;;;;;16.88;12.05;;;;;;;24.63;57.85;99481.78;5033940;28;20016;-86
2023/08/23 01:57:51;;;;;;;14.13;11.20;;;;;;;24.53;57.77;99464.34;5051719;28;20104;-86
2023/08/23 02:00:16;;;;;;;17.98;11.07;;;;;;;24.45;58.61;99476.31;5031359;28;20411;-86
2023/08/23 02:02:42;;;;;;;14.90;11.75;;;;;;;24.23;59.32;99488.84;5031780;28;20026;-85
2023/08/23 02:05:08;;;;;;;19.92;12.13;;;;;;;24.06;59.51;99482.13;5014081;28;20025;-86
2023/08/23 02:07:33;;;;;;;14.23;12.30;;;;;;;23.94;60.08;99480.63;5013379;28;20025;-86
2023/08/23 02:09:59;;;;;;;17.30;11.98;;;;;;;23.90;59.84;99488.44;5013050;28;20488;-86
2023/08/23 02:12:24;;;;;;;20.83;12.68;;;;;;;23.94;59.75;99489.19;5031592;28;20026;-86
2023/08/23 02:14:50;;;;;;;16.00;11.63;;;;;;;23.80;60.02;99493.00;5013852;28;20519;-85
2023/08/23 02:17:15;;;;;;;16.55;11.02;;;;;;;23.48;60.65;99476.25;5013203;28;20026;-86
2023/08/23 02:19:41;;;;;;;13.82;11.50;;;;;;;23.47;61.03;99481.16;5014143;28;20032;-86
2023/08/23 02:22:06;;;;;;;15.98;11.88;;;;;;;23.54;60.53;99486.00;5014050;28;20022;-86
2023/08/23 02:24:32;;;;;;;17.45;11.80;;;;;;;23.34;61.01;99474.34;5011993;28;20640;-87
2023/08/23 02:26:57;;;;;;;13.48;12.02;;;;;;;23.06;61.90;99470.50;5013876;28;20076;-86
2023/08/23 02:29:23;;;;;;;18.83;12.50;;;;;;;23.09;62.07;99487.59;5036869;28;20419;-86
2023/08/23 02:31:48;;;;;;;13.23;11.85;;;;;;;22.88;62.87;99484.91;5033637;28;20081;-84
2023/08/23 02:34:14;;;;;;;13.80;12.25;;;;;;;22.95;62.90;99488.50;5033386;28;20028;-84
2023/08/23 02:36:39;;;;;;;17.17;12.90;;;;;;;22.94;63.07;99469.00;5046199;28;20045;-84
2023/08/23 02:39:05;;;;;;;14.68;12.23;;;;;;;22.95;62.97;99484.88;5029137;28;20029;-84
2023/08/23 02:41:30;;;;;;;15.55;13.32;;;;;;;22.85;63.78;99473.13;5023662;28;20042;-84
2023/08/23 02:43:56;;;;;;;18.15;13.68;;;;;;;22.65;64.75;99452.91;5031087;28;20017;-83
2023/08/23 02:46:21;;;;;;;19.50;13.85;;;;;;;22.72;65.22;99478.50;5013228;28;20105;-85
2023/08/23 02:48:47;;;;;;;16.42;13.48;;;;;;;22.75;64.98;99488.25;5030930;28;20029;-85
2023/08/23 02:51:12;;;;;;;17.02;13.23;;;;;;;22.88;64.82;99480.03;5013258;28;20453;-84
2023/08/23 02:53:38;;;;;;;17.23;12.50;;;;;;;22.68;65.32;99479.75;5012487;28;20029;-85
2023/08/23 02:56:03;;;;;;;19.65;13.43;;;;;;;22.79;64.83;99480.50;5029604;28;20100;-85
2023/08/23 02:58:29;;;;;;;34.42;13.43;;;;;;;23.03;63.82;99477.84;5013450;28;20026;-84
2023/08/23 03:00:54;;;;;;;29.50;13.52;;;;;;;22.75;64.72;99479.72;5009364;28;20092;-84
2023/08/23 03:03:20;;;;;;;15.13;13.35;;;;;;;23.03;63.92;99486.41;4996422;28;20117;-84
2023/08/23 03:05:56;;;;;;;24.05;15.10;;;;;;;22.80;64.91;99484.97;5013286;28;20033;-84
2023/08/23 03:08:23;;;;;;;22.65;14.00;;;;;;;22.92;64.42;99482.84;5011994;28;20129;-84
2023/08/23 03:10:48;;;;;;;16.00;12.38;;;;;;;22.98;64.54;99486.88;5013320;28;20037;-85
2023/08/23 03:13:14;;;;;;;23.63;13.90;;;;;;;23.15;63.85;99487.94;5012709;28;20072;-85
2023/08/23 03:15:39;;;;;;;19.90;13.57;;;;;;;22.97;64.51;99482.41;5030954;28;20022;-84
2023/08/23 03:18:05;;;;;;;32.67;16.05;;;;;;;22.75;65.31;99479.72;5013917;28;20025;-85
2023/08/23 03:20:30;;;;;;;19.95;13.80;;;;;;;22.61;65.47;99474.91;5037697;28;20033;-84
2023/08/23 03:22:56;;;;;;;19.90;14.07;;;;;;;22.69;65.64;99475.69;5012351;28;20029;-85
2023/08/23 03:25:21;;;;;;;29.75;13.63;;;;;;;22.76;65.61;99475.63;5013921;28;20022;-85
2023/08/23 03:27:52;;;;;;;24.05;14.15;;;;;;;22.56;66.16;99479.03;5032913;28;20026;-84
2023/08/23 03:30:18;;;;;;;33.67;14.52;;;;;;;22.72;66.19;99486.25;5022380;28;20484;-86
2023/08/23 03:32:44;;;;;;;129.00;20.52;;;;;;;22.60;66.34;99481.06;5022240;28;20462;-85
2023/08/23 03:35:09;;;;;;;35.45;14.70;;;;;;;22.38;67.17;99478.31;5021772;28;20116;-86
2023/08/23 03:37:35;;;;;;;17.70;13.52;;;;;;;22.35;67.01;99474.25;5017360;28;20021;-86
2023/08/23 03:40:00;;;;;;;20.10;14.52;;;;;;;22.27;66.97;99466.97;5010338;28;20112;-86
2023/08/23 03:42:26;;;;;;;27.52;13.32;;;;;;;22.24;67.18;99482.84;5017526;28;20052;-85
2023/08/23 03:44:51;;;;;;;29.67;14.85;;;;;;;22.12;67.64;99481.28;5023306;28;20026;-86
2023/08/23 03:47:17;;;;;;;17.83;13.75;;;;;;;22.10;67.92;99477.25;5027625;28;20087;-86
2023/08/23 03:49:42;;;;;;;20.67;13.60;;;;;;;22.04;68.39;99481.72;5033053;28;20021;-86
2023/08/23 03:52:08;;;;;;;21.92;13.40;;;;;;;22.13;68.09;99482.09;5018611;28;20029;-86
2023/08/23 03:54:33;;;;;;;21.13;14.07;;;;;;;22.26;67.35;99488.13;5016567;28;20017;-86
2023/08/23 03:56:58;;;;;;;22.60;13.93;;;;;;;22.36;67.18;99480.75;5016848;28;20083;-86
2023/08/23 03:59:24;;;;;;;79.03;17.02;;;;;;;22.48;66.81;99482.31;5032875;28;20116;-86
2023/08/23 04:01:49;;;;;;;36.22;16.52;;;;;;;22.39;66.29;99451.44;5017168;28;20022;-86
2023/08/23 04:04:15;;;;;;;48.80;16.15;;;;;;;22.64;66.07;99479.81;5016531;28;20021;-86
2023/08/23 04:06:40;;;;;;;27.38;14.93;;;;;;;22.53;66.56;99477.00;5019957;28;20232;-86
2023/08/23 04:09:06;;;;;;;53.05;15.48;;;;;;;22.37;66.97;99470.97;5033902;28;20029;-86
2023/08/23 04:11:31;;;;;;;47.83;13.70;;;;;;;22.42;67.40;99481.94;5015843;28;20412;-86
2023/08/23 04:13:57;;;;;;;20.02;14.20;;;;;;;22.61;66.89;99479.81;5033856;28;20040;-86
2023/08/23 04:16:22;;;;;;;32.33;14.05;;;;;;;22.75;66.77;99478.91;5015856;28;20026;-86
2023/08/23 04:18:47;;;;;;;26.98;14.23;;;;;;;22.95;66.14;99482.00;5033691;28;20471;-86
2023/08/23 04:21:13;;;;;;;27.42;13.90;;;;;;;22.52;67.35;99472.53;5013619;28;20048;-85
2023/08/23 04:23:38;;;;;;;29.77;14.65;;;;;;;22.32;68.28;99480.78;5027183;28;20033;-86
2023/08/23 04:26:04;;;;;;;22.77;13.20;;;;;;;22.52;67.64;99483.94;5024263;28;20024;-86
2023/08/23 04:28:29;;;;;;;20.63;13.98;;;;;;;22.43;67.73;99487.22;5031833;28;20128;-86
2023/08/23 04:31:03;;;;;;;29.20;14.65;;;;;;;22.37;68.27;99488.88;5019765;28;20041;-86
2023/08/23 04:33:28;;;;;;;25.38;13.18;;;;;;;22.41;67.58;99483.16;5015879;28;20136;-86
2023/08/23 04:35:53;;;;;;;24.40;14.85;;;;;;;22.40;67.29;99482.38;5014233;28;20033;-85
2023/08/23 04:38:19;;;;;;;23.52;14.85;;;;;;;22.40;67.19;99493.75;5016270;28;20115;-86
2023/08/23 04:40:44;;;;;;;26.42;13.55;;;;;;;22.45;66.85;99486.81;5011979;28;20056;-85
2023/08/23 04:43:10;;;;;;;22.27;14.10;;;;;;;22.62;66.79;99495.69;5030768;28;20076;-84
2023/08/23 04:45:37;;;;;;;19.25;13.75;;;;;;;22.70;66.42;99502.97;5012321;28;20057;-85
2023/08/23 04:48:03;;;;;;;25.55;14.27;;;;;;;22.64;66.96;99502.59;5012298;28;20033;-85
2023/08/23 04:50:29;;;;;;;18.65;12.38;;;;;;;22.68;66.86;99508.25;5008136;28;20037;-84
2023/08/23 04:52:55;;;;;;;18.55;13.88;;;;;;;22.58;67.11;99499.38;5011442;28;20069;-85
2023/08/23 04:55:20;;;;;;;31.80;15.02;;;;;;;22.81;66.63;99500.03;5006699;28;20030;-85
2023/08/23 04:57:46;;;;;;;27.08;13.10;;;;;;;22.83;66.58;99495.53;5011376;28;20033;-86
2023/08/23 05:00:13;;;;;;;15.18;13.25;;;;;;;22.88;66.78;99491.44;5027027;28;20053;-86
2023/08/23 05:02:38;;;;;;;20.02;13.52;;;;;;;22.98;66.54;99498.28;5013496;28;20031;-84
2023/08/23 05:05:05;;;;;;;24.20;13.80;;;;;;;23.14;66.01;99492.03;5004907;28;20415;-85
2023/08/23 05:07:30;;;;;;;19.52;12.73;;;;;;;23.20;65.56;99481.78;5011896;28;20459;-85
2023/08/23 05:09:56;;;;;;;21.27;13.43;;;;;;;23.10;65.86;99469.25;5033229;28;20021;-86
2023/08/23 05:12:21;;;;;;;19.88;13.38;;;;;;;23.40;64.99;99484.88;5010968;28;20026;-84
2023/08/23 05:14:47;;;;;;;25.67;14.02;;;;;;;23.50;64.35;99468.06;5010450;28;20025;-86
2023/08/23 05:17:12;;;;;;;32.42;15.88;;;;;;;23.63;64.28;99483.41;5017016;28;20025;-84
2023/08/23 05:19:38;;;;;;;20.40;13.27;;;;;;;23.66;64.04;99476.06;5014858;28;20392;-84
2023/08/23 05:22:03;;;;;;;32.65;14.23;;;;;;;23.82;63.77;99493.41;5022078;28;20025;-84
2023/08/23 05:24:29;;;;;;;22.67;13.82;;;;;;;23.94;63.00;99492.03;5014298;28;20028;-84
2023/08/23 05:26:54;;;;;;;22.48;12.93;;;;;;;23.98;62.47;99487.09;5009897;28;20025;-83
2023/08/23 05:29:20;;;;;;;20.02;14.50;;;;;;;24.16;61.67;99497.53;5013709;28;20021;-83
2023/08/23 05:31:45;;;;;;;35.13;15.35;;;;;;;24.24;61.30;99492.53;5030169;28;20032;-83
2023/08/23 05:34:11;;;;;;;28.13;13.65;;;;;;;24.36;60.68;99491.13;5011719;28;20025;-84
2023/08/23 05:36:36;;;;;;;22.27;14.30;;;;;;;24.34;60.74;99470.75;5008907;28;20037;-84
2023/08/23 05:39:03;;;;;;;18.55;13.75;;;;;;;24.57;59.10;99486.34;5010010;28;20477;-82
2023/08/23 05:41:29;;;;;;;27.48;13.07;;;;;;;24.72;58.99;99482.00;5014397;28;20405;-84
2023/08/23 05:43:54;;;;;;;14.82;12.35;;;;;;;24.90;58.43;99480.97;5011219;28;20033;-85
2023/08/23 05:46:20;;;;;;;25.35;12.57;;;;;;;25.06;56.75;99475.38;5005401;28;20104;-84
2023/08/23 05:48:45;;;;;;;16.05;12.05;;;;;;;25.11;56.76;99471.22;4998391;28;20037;-83
2023/08/23 05:51:11;;;;;;;15.43;12.27;;;;;;;25.27;55.97;99473.38;5014879;28;20112;-84
2023/08/23 05:53:36;;;;;;;14.30;11.75;;;;;;;25.40;55.79;99478.47;5008738;28;20029;-85
2023/08/23 05:56:02;;;;;;;13.65;12.25;;;;;;;25.33;56.19;99474.47;5032342;28;20519;-87
2023/08/23 05:58:27;;;;;;;16.80;12.18;;;;;;;25.45;55.47;99480.81;5022084;28;20032;-86
2023/08/23 06:00:55;;;;;;;17.50;12.32;;;;;;;25.60;55.44;99485.09;5012317;28;20029;-85
2023/08/23 06:03:21;;;;;;;18.60;12.38;;;;;;;25.66;54.55;99479.66;5007256;28;20411;-85
2023/08/23 06:05:46;;;;;;;20.83;12.05;;;;;;;25.67;54.71;99474.72;5009629;28;20025;-85
2023/08/23 06:08:12;;;;;;;17.63;11.93;;;;;;;25.67;54.80;99477.59;5002966;28;20120;-86
2023/08/23 06:10:38;;;;;;;16.45;11.82;;;;;;;25.75;55.04;99468.41;5008491;28;20457;-85
2023/08/23 06:13:04;;;;;;;17.98;11.93;;;;;;;25.95;54.62;99478.28;5014411;28;20026;-86
2023/08/23 06:15:29;;;;;;;19.95;12.98;;;;;;;26.04;54.44;99478.47;5032117;28;20498;-86
2023/08/23 06:17:55;;;;;;;17.85;11.80;;;;;;;26.10;53.68;99453.78;5016775;28;20034;-85
2023/08/23 06:20:21;;;;;;;16.08;11.65;;;;;;;26.05;54.67;99475.16;5022849;28;20033;-85
2023/08/23 06:22:47;;;;;;;16.10;12.05;;;;;;;26.33;53.90;99480.75;5012329;28;20063;-86
2023/08/23 06:25:12;;;;;;;13.52;11.98;;;;;;;26.42;53.23;99462.94;5012071;28;20025;-85
2023/08/23 06:27:38;;;;;;;17.33;12.60;;;;;;;26.70;53.15;99478.69;5021864;28;20029;-83
2023/08/23 06:30:04;;;;;;;14.27;12.00;;;;;;;26.93;52.27;99476.94;5013356;28;20471;-84
2023/08/23 06:32:30;;;;;;;24.65;12.43;;;;;;;26.99;51.82;99483.72;5013596;28;20048;-84
2023/08/23 06:34:55;;;;;;;12.98;11.70;;;;;;;26.93;51.24;99482.66;5013326;28;20496;-84
2023/08/23 06:37:23;;;;;;;17.85;12.70;;;;;;;26.95;51.66;99483.03;5030308;28;20057;-85
2023/08/23 06:39:49;;;;;;;15.95;12.00;;;;;;;27.10;51.56;99482.66;5019444;28;20049;-84
2023/08/23 06:42:17;;;;;;;18.77;13.32;;;;;;;27.24;50.99;99488.00;5022582;28;20056;-84
2023/08/23 06:44:45;;;;;;;21.05;13.52;;;;;;;27.17;50.66;99476.75;5027133;28;20138;-85
2023/08/23 06:47:11;;;;;;;15.40;13.32;;;;;;;27.21;50.93;99488.94;5029672;28;20100;-85
2023/08/23 06:49:37;;;;;;;24.00;12.07;;;;;;;27.58;49.87;99492.47;5009317;28;20160;-85
2023/08/23 06:52:02;;;;;;;13.18;11.73;;;;;;;27.77;48.64;99486.25;5014738;28;20026;-85
2023/08/23 06:54:28;;;;;;;15.07;11.82;;;;;;;27.85;48.29;99493.41;4983558;28;20026;-86
2023/08/23 06:56:53;;;;;;;17.75;11.80;;;;;;;27.83;48.13;99488.09;4999468;28;20041;-85
2023/08/23 06:59:19;;;;;;;14.93;10.65;;;;;;;28.07;47.15;99472.66;5028637;28;20105;-85
2023/08/23 07:01:46;;;;;;;16.10;10.65;;;;;;;28.29;46.15;99495.84;5002076;28;20056;-86
2023/08/23 07:04:11;;;;;;;11.85;10.25;;;;;;;28.02;45.41;99494.94;5015180;28;20088;-86
2023/08/23 07:06:37;;;;;;;21.80;11.80;;;;;;;28.38;45.78;99498.84;5002732;28;20436;-86
2023/08/23 07:09:02;;;;;;;13.35;9.75;;;;;;;28.84;44.57;99489.22;5008267;28;20029;-85
2023/08/23 07:11:28;;;;;;;17.70;10.38;;;;;;;28.87;43.61;99496.94;5010399;28;20049;-86
2023/08/23 07:13:53;;;;;;;12.13;10.07;;;;;;;29.11;42.96;99502.34;5032906;28;20029;-85
2023/08/23 07:16:19;;;;;;;20.55;11.55;;;;;;;29.47;43.11;99489.59;5015980;28;20052;-84
2023/08/23 07:18:44;;;;;;;14.07;10.68;;;;;;;29.77;42.16;99489.38;5014133;28;20026;-85
2023/08/23 07:21:10;;;;;;;15.15;10.90;;;;;;;29.77;41.49;99489.38;5013887;28;20033;-87
2023/08/23 07:23:35;;;;;;;13.98;10.80;;;;;;;29.61;41.91;99496.13;4999731;28;20030;-86
2023/08/23 07:26:03;;;;;;;14.23;10.18;;;;;;;29.62;41.36;99486.22;5016222;28;20056;-87
2023/08/23 07:28:29;;;;;;;17.35;10.75;;;;;;;30.01;42.20;99492.59;5011849;28;20033;-86
2023/08/23 07:30:57;;;;;;;14.93;10.57;;;;;;;30.23;41.21;99477.38;5012482;28;20032;-87
2023/08/23 07:33:26;;;;;;;14.10;10.00;;;;;;;30.40;39.55;99483.72;5023796;28;20037;-88
2023/08/23 07:35:57;;;;;;;16.08;11.00;;;;;;;30.49;41.02;99480.06;5014718;28;20046;-87
2023/08/23 07:38:23;;;;;;;10.63;9.52;;;;;;;30.54;40.04;99485.25;5008042;28;20116;-87
2023/08/23 07:40:48;;;;;;;16.33;10.65;;;;;;;30.22;40.00;99467.91;5013082;28;20385;-86
2023/08/23 07:43:14;;;;;;;13.95;10.02;;;;;;;30.54;39.50;99476.59;5048557;28;20045;-87
2023/08/23 07:45:39;;;;;;;14.75;10.73;;;;;;;30.80;39.58;99487.94;5030406;28;20021;-88
2023/08/23 07:48:05;;;;;;;45.47;13.45;;;;;;;31.11;39.03;99478.41;5019167;28;20033;-85
2023/08/23 07:50:30;;;;;;;12.43;9.80;;;;;;;31.39;39.23;99481.38;5016813;28;20112;-87
2023/08/23 07:52:56;;;;;;;12.82;10.85;;;;;;;31.52;38.67;99467.59;5031803;28;20029;-87
2023/08/23 07:55:22;;;;;;;15.77;10.57;;;;;;;31.54;39.01;99472.06;5012322;28;20087;-86
2023/08/23 07:57:48;;;;;;;12.00;9.15;;;;;;;31.65;37.73;99470.28;5028212;28;20095;-89
2023/08/23 08:00:13;;;;;;;15.93;10.55;;;;;;;31.96;38.43;99485.09;5033139;28;20033;-87
2023/08/23 08:02:39;;;;;;;11.32;10.10;;;;;;;31.55;37.20;99474.47;5016023;28;20038;-87
2023/08/23 08:05:05;;;;;;;18.63;11.35;;;;;;;31.33;37.57;99472.53;5015029;28;20035;-87
2023/08/23 08:07:30;;;;;;;18.85;10.65;;;;;;;31.71;38.36;99464.66;5032122;28;20029;-87
2023/08/23 08:09:56;;;;;;;12.02;10.82;;;;;;;31.88;38.19;99464.38;5018916;28;20197;-86
2023/08/23 08:12:21;;;;;;;15.40;10.20;;;;;;;31.91;37.58;99451.84;5012852;28;20049;-87
2023/08/23 08:14:47;;;;;;;12.80;10.60;;;;;;;32.13;36.13;99462.41;5014852;28;20029;-87
2023/08/23 08:17:12;;;;;;;15.70;10.63;;;;;;;32.50;36.91;99462.31;4999080;28;20026;-87
2023/08/23 08:19:38;;;;;;;15.23;9.65;;;;;;;32.71;36.23;99454.66;5025058;28;20053;-87
2023/08/23 08:22:03;;;;;;;11.50;10.15;;;;;;;32.60;36.35;99443.63;5031382;28;20087;-88
2023/08/23 08:24:29;;;;;;;14.20;11.02;;;;;;;32.71;35.97;99442.31;5014711;28;20070;-88
2023/08/23 08:26:54;;;;;;;14.73;10.80;;;;;;;32.38;35.70;99460.44;5014754;28;20025;-88
2023/08/23 08:29:21;;;;;;;23.33;10.02;;;;;;;32.66;36.39;99445.84;5011875;28;20038;-88
2023/08/23 08:31:50;;;;;;;16.90;8.98;;;;;;;32.87;34.86;99446.84;5031317;28;20040;-87
2023/08/23 08:34:16;;;;;;;22.88;9.27;;;;;;;33.25;34.96;99459.88;5001831;28;20038;-87
2023/08/23 08:36:41;;;;;;;22.30;10.27;;;;;;;33.12;34.68;99439.00;4993380;28;20045;-88
2023/08/23 08:39:06;;;;;;;13.00;9.43;;;;;;;32.83;34.69;99437.56;5025082;28;20025;-88
2023/08/23 08:41:32;;;;;;;14.20;10.50;;;;;;;33.30;34.60;99455.47;5010293;28;20574;-88
2023/08/23 08:43:58;;;;;;;17.10;9.85;;;;;;;33.62;33.36;99458.00;5000035;28;20030;-88
2023/08/23 08:46:24;;;;;;;11.68;9.38;;;;;;;33.42;33.62;99431.22;5012026;28;20025;-85
2023/08/23 08:48:49;;;;;;;19.17;10.55;;;;;;;33.84;34.25;99441.03;5013564;28;20127;-84
2023/08/23 08:51:19;;;;;;;23.17;10.52;;;;;;;33.64;32.89;99440.91;5022838;28;20037;-83
2023/08/23 08:53:51;;;;;;;12.15;9.35;;;;;;;33.25;33.66;99435.88;5012008;28;20112;-83
2023/08/23 08:56:19;;;;;;;14.00;9.30;;;;;;;33.61;33.44;99431.09;5008922;28;20044;-84
2023/08/23 08:58:45;;;;;;;13.98;9.68;;;;;;;33.93;32.65;99430.63;5029105;28;20114;-83
2023/08/23 09:01:14;;;;;;;7.95;7.00;;;;;;;34.39;31.13;99430.13;5017805;28;20044;-83
2023/08/23 09:03:40;;;;;;;13.10;7.07;;;;;;;34.30;29.79;99433.97;5011611;28;20048;-83
2023/08/23 09:06:07;;;;;;;12.93;7.72;;;;;;;34.21;30.58;99433.25;5026025;28;20041;-83
2023/08/23 09:08:34;;;;;;;8.13;6.40;;;;;;;34.34;30.62;99430.06;5009519;28;20067;-83
2023/08/23 09:10:59;;;;;;;9.13;7.63;;;;;;;34.50;30.72;99411.31;5027966;28;20061;-83
2023/08/23 09:13:25;;;;;;;10.50;8.40;;;;;;;34.70;30.82;99419.28;5010213;28;20553;-83
2023/08/23 09:15:51;;;;;;;12.85;8.45;;;;;;;34.92;30.37;99418.81;5029728;28;20037;-83
2023/08/23 09:18:19;;;;;;;12.95;7.65;;;;;;;34.91;29.71;99413.53;5015151;28;20106;-82
2023/08/23 09:20:46;;;;;;;10.03;7.43;;;;;;;34.88;29.81;99409.53;5018187;28;20033;-83
2023/08/23 09:23:11;;;;;;;8.63;6.90;;;;;;;35.08;30.01;99414.56;4996766;28;20043;-82
2023/08/23 09:25:37;;;;;;;11.30;7.57;;;;;;;35.12;29.44;99405.63;5008544;28;20029;-83
2023/08/23 09:28:03;;;;;;;24.85;7.53;;;;;;;35.23;29.30;99402.06;5008839;28;20026;-82
2023/08/23 09:30:29;;;;;;;7.93;6.22;;;;;;;35.20;28.83;99398.09;5024535;28;20033;-82
2023/08/23 09:32:57;;;;;;;15.52;8.43;;;;;;;35.52;28.75;99395.28;5009288;28;20128;-83
2023/08/23 09:35:22;;;;;;;10.50;6.93;;;;;;;35.41;27.94;99403.88;5009698;28;20033;-83
2023/08/23 09:37:49;;;;;;;10.05;5.65;;;;;;;35.38;27.52;99378.72;5014221;28;20041;-83
2023/08/23 09:40:19;;;;;;;10.60;6.13;;;;;;;35.42;27.84;99400.47;5017578;28;20043;-83
2023/08/23 09:42:45;;;;;;;8.88;5.47;;;;;;;35.59;27.77;99399.09;4999413;28;20144;-83
2023/08/23 09:45:17;;;;;;;13.93;6.05;;;;;;;35.77;27.64;99387.09;4998464;28;20120;-83
2023/08/23 09:47:51;;;;;;;7.32;6.32;;;;;;;35.77;26.89;99386.31;4999918;28;20045;-83
2023/08/23 09:50:21;;;;;;;8.18;6.00;;;;;;;35.77;27.00;99392.13;4989803;28;20104;-82
2023/08/23 09:53:10;;;;;;;5.47;4.95;;;;;;;35.73;26.47;99389.44;4993849;28;20381;-83
2023/08/23 09:55:37;;;;;;;9.50;6.47;;;;;;;36.21;27.21;99385.16;5002239;28;20065;-82
2023/08/23 09:58:03;;;;;;;8.88;6.78;;;;;;;36.28;26.59;99380.97;4989139;28;20458;-83
2023/08/23 10:00:29;;;;;;;14.05;6.80;;;;;;;36.31;26.97;99384.94;4987879;28;20124;-83
2023/08/23 10:02:58;;;;;;;13.45;6.57;;;;;;;36.45;26.03;99354.09;5001957;28;20112;-84
2023/08/23 10:05:25;;;;;;;8.02;5.75;;;;;;;36.67;25.93;99373.84;4984023;28;20061;-84
2023/08/23 10:07:54;;;;;;;9.90;5.95;;;;;;;36.83;25.82;99369.41;4997204;28;20033;-83
2023/08/23 10:10:19;;;;;;;10.05;6.10;;;;;;;36.84;26.14;99378.97;4988776;28;20586;-84
2023/08/23 10:12:48;;;;;;;9.77;6.65;;;;;;;36.95;25.29;99370.28;4990943;28;20034;-83
2023/08/23 10:15:16;;;;;;;13.07;6.07;;;;;;;36.83;24.13;99375.25;4999535;28;20066;-82
2023/08/23 10:17:45;;;;;;;6.20;5.55;;;;;;;36.71;23.97;99365.66;5008573;28;20033;-83
2023/08/23 10:20:11;;;;;;;21.05;6.40;;;;;;;36.62;24.48;99368.78;4991290;28;20094;-82
2023/08/23 10:22:37;;;;;;;8.20;5.20;;;;;;;36.60;23.63;99365.59;4990094;28;20033;-83
2023/08/23 10:25:19;;;;;;;6.95;5.97;;;;;;;36.79;24.37;99363.06;4992680;28;20029;-82
2023/08/23 10:27:47;;;;;;;10.68;6.32;;;;;;;36.86;24.28;99350.13;4988550;28;20025;-83
2023/08/23 10:30:30;;;;;;;11.57;6.30;;;;;;;36.68;24.40;99352.13;5008205;28;20553;-83
2023/08/23 10:33:15;;;;;;;8.77;6.03;;;;;;;36.82;24.30;99350.34;5008835;28;20080;-83
2023/08/23 10:35:46;;;;;;;10.52;6.28;;;;;;;36.89;24.24;99346.94;4989643;28;20038;-82
2023/08/23 10:38:12;;;;;;;27.67;6.93;;;;;;;36.90;23.94;99356.47;4993092;28;20525;-83
2023/08/23 10:40:41;;;;;;;6.97;5.90;;;;;;;37.01;24.00;99347.78;4994808;28;20036;-83
2023/08/23 10:43:14;;;;;;;8.70;6.82;;;;;;;37.12;23.35;99344.16;5008873;28;20052;-83
2023/08/23 10:46:02;;;;;;;6.05;5.45;;;;;;;36.91;23.96;99340.59;5006231;28;20043;-83
2023/08/23 10:48:28;;;;;;;9.48;6.30;;;;;;;37.04;23.43;99337.25;5012980;28;20044;-83
2023/08/23 10:50:54;;;;;;;12.07;6.13;;;;;;;37.17;23.29;99339.69;5010013;28;20033;-83
2023/08/23 10:53:21;;;;;;;7.50;6.28;;;;;;;37.43;23.34;99327.03;5008783;28;20117;-83
2023/08/23 10:55:47;;;;;;;11.93;6.70;;;;;;;37.42;24.31;99331.25;5013531;28;20025;-83
2023/08/23 10:58:13;;;;;;;11.40;5.57;;;;;;;37.44;22.94;99320.63;5010290;28;20030;-83
2023/08/23 11:00:41;;;;;;;12.75;6.70;;;;;;;37.43;22.88;99321.97;5013115;28;20029;-83
2023/08/23 11:03:08;;;;;;;9.70;6.63;;;;;;;37.46;23.14;99323.03;5008087;28;20053;-82
2023/08/23 11:05:34;;;;;;;10.98;6.55;;;;;;;37.61;23.34;99320.69;5012228;28;20101;-83
2023/08/23 11:08:00;;;;;;;9.55;6.47;;;;;;;37.53;23.89;99307.19;5012642;28;20112;-83
2023/08/23 11:10:25;;;;;;;8.70;6.13;;;;;;;37.67;23.54;99308.25;5011427;28;20025;-82
2023/08/23 11:12:51;;;;;;;9.75;6.63;;;;;;;37.74;22.85;99316.47;5007971;28;20559;-83
2023/08/23 11:15:17;;;;;;;10.30;7.30;;;;;;;37.72;21.79;99301.63;5011447;28;20079;-83
2023/08/23 11:17:42;;;;;;;8.20;6.10;;;;;;;37.54;22.83;99292.06;5015597;28;20404;-83